Time;durP1;ratioP1;P1;durP2;ratioP2;P2;SDS_P1;SDS_P2;PMS_P1;PMS_P2;Temp;Humidity;BMP_temperature;BMP_pressure;BME280_temperature;BME280_humidity;BME280_pressure;Samples;Min_cycle;Max_cycle;Signal;HPM_P1;HPM_P2
2024/03/15 00:00:12;;;;;;;24.10;11.50;;;;;;;-2.01;56.41;100422.94;4771915;29;20085;-75
2024/03/15 00:02:38;;;;;;;24.60;11.93;;;;;;;-1.92;56.16;100435.28;4800683;29;20057;-73
2024/03/15 00:05:08;;;;;;;22.45;11.38;;;;;;;-1.85;56.80;100441.59;4789202;29;20513;-74
2024/03/15 00:07:35;;;;;;;17.73;10.57;;;;;;;-1.75;56.46;100468.44;4812903;29;20077;-75
2024/03/15 00:10:01;;;;;;;20.55;11.77;;;;;;;-2.55;56.32;100322.38;4789044;29;20145;-74
2024/03/15 00:12:29;;;;;;;22.83;12.20;;;;;;;-1.84;56.55;100451.00;4785490;29;20486;-73
2024/03/15 00:14:56;;;;;;;20.95;12.10;;;;;;;-1.81;55.96;100451.16;4787944;29;20047;-74
2024/03/15 00:17:22;;;;;;;22.13;11.88;;;;;;;-1.86;56.17;100457.69;4801565;29;20499;-73
2024/03/15 00:19:51;;;;;;;22.45;11.68;;;;;;;-1.98;56.88;100438.38;4804191;29;20415;-76
2024/03/15 00:22:17;;;;;;;23.77;11.88;;;;;;;-2.39;56.74;100358.03;4800318;29;20055;-74
2024/03/15 00:24:47;;;;;;;23.08;12.23;;;;;;;-2.09;56.66;100397.81;4788264;29;20055;-72
2024/03/15 00:27:13;;;;;;;22.70;12.27;;;;;;;-1.85;56.91;100451.78;4800512;29;20121;-73
2024/03/15 00:29:40;;;;;;;21.88;11.85;;;;;;;-1.95;56.82;100449.53;4798794;29;20047;-76
2024/03/15 00:32:07;;;;;;;24.65;12.82;;;;;;;-2.07;56.57;100429.38;4797298;29;20054;-72
2024/03/15 00:34:36;;;;;;;24.58;13.25;;;;;;;-1.92;56.82;100450.59;4802675;29;20111;-72
2024/03/15 00:37:05;;;;;;;25.05;12.75;;;;;;;-2.27;56.94;100396.94;4786360;29;20418;-72
2024/03/15 00:39:31;;;;;;;22.98;13.43;;;;;;;-2.09;56.58;100430.97;4784007;29;20050;-74
2024/03/15 00:41:57;;;;;;;25.50;13.30;;;;;;;-2.15;57.22;100421.31;4814869;29;20080;-72
2024/03/15 00:44:23;;;;;;;24.17;13.13;;;;;;;-2.57;57.07;100340.13;4785117;29;20069;-71
2024/03/15 00:46:50;;;;;;;25.55;13.07;;;;;;;-1.91;56.94;100447.25;4803373;29;20046;-73
2024/03/15 00:49:18;;;;;;;23.88;12.88;;;;;;;-2.14;57.14;100407.78;4802332;29;20092;-73
2024/03/15 00:51:44;;;;;;;24.42;13.45;;;;;;;-2.17;56.88;100417.81;4768599;29;20051;-73
2024/03/15 00:54:10;;;;;;;25.85;13.45;;;;;;;-2.44;56.98;100375.66;4799848;29;20047;-72
2024/03/15 00:56:36;;;;;;;27.42;14.15;;;;;;;-2.00;56.99;100457.88;4786922;29;20051;-72
2024/03/15 00:59:03;;;;;;;24.33;13.75;;;;;;;-2.13;57.23;100420.63;4771575;29;20076;-73
2024/03/15 01:01:29;;;;;;;24.63;13.00;;;;;;;-2.07;57.54;100417.50;4772179;29;20047;-74
2024/03/15 01:03:55;;;;;;;22.23;12.60;;;;;;;-2.21;57.14;100391.28;4785900;29;20043;-73
2024/03/15 01:06:23;;;;;;;24.23;13.35;;;;;;;-2.15;57.56;100403.47;4801718;29;20035;-73
2024/03/15 01:08:51;;;;;;;24.85;14.30;;;;;;;-2.12;57.36;100421.50;4788074;29;20039;-78
2024/03/15 01:11:19;;;;;;;23.88;13.15;;;;;;;-2.15;57.31;100421.31;4787097;29;20127;-74
2024/03/15 01:13:46;;;;;;;24.42;14.20;;;;;;;-2.00;57.22;100454.41;4799091;29;20042;-73
2024/03/15 01:16:15;;;;;;;27.20;14.00;;;;;;;-2.08;57.49;100431.06;4772630;29;20829;-74
2024/03/15 01:18:41;;;;;;;27.52;15.05;;;;;;;-1.95;57.62;100452.09;4815883;29;20043;-75
2024/03/15 01:21:15;;;;;;;24.88;14.10;;;;;;;-2.04;57.36;100427.88;4802469;29;20100;-75
2024/03/15 01:23:41;;;;;;;25.52;14.35;;;;;;;-1.99;57.44;100438.31;4797767;29;20066;-74
2024/03/15 01:26:07;;;;;;;28.73;14.25;;;;;;;-1.93;57.63;100443.75;4783243;29;20082;-74
2024/03/15 01:28:33;;;;;;;27.67;14.35;;;;;;;-2.51;57.28;100357.41;4802119;29;20738;-76
2024/03/15 01:30:59;;;;;;;28.52;15.07;;;;;;;-2.29;56.92;100398.53;4813887;29;20437;-74
2024/03/15 01:33:26;;;;;;;28.92;14.73;;;;;;;-2.18;57.17;100427.16;4787183;29;20050;-76
2024/03/15 01:35:52;;;;;;;25.75;15.02;;;;;;;-2.61;57.66;100341.63;4780891;29;20046;-75
2024/03/15 01:38:18;;;;;;;27.08;14.00;;;;;;;-2.29;57.39;100410.41;4794068;29;20042;-75
2024/03/15 01:40:44;;;;;;;26.77;15.10;;;;;;;-2.60;57.97;100360.34;4788924;29;20042;-76
2024/03/15 01:43:14;;;;;;;27.17;14.88;;;;;;;-2.05;57.66;100443.97;4783970;29;20073;-75
2024/03/15 01:45:41;;;;;;;28.05;14.77;;;;;;;-2.46;57.64;100391.69;4802016;29;20049;-75
2024/03/15 01:48:07;;;;;;;31.58;15.52;;;;;;;-2.70;57.63;100346.25;4815089;29;20126;-74
2024/03/15 01:50:34;;;;;;;28.02;16.05;;;;;;;-2.22;57.50;100430.34;4787171;29;20051;-76
2024/03/15 01:53:03;;;;;;;28.75;15.55;;;;;;;-2.13;58.06;100437.59;4801134;29;20042;-75
2024/03/15 01:55:29;;;;;;;31.67;15.95;;;;;;;-2.25;57.55;100448.00;4786043;29;20047;-75
2024/03/15 01:58:00;;;;;;;31.70;16.30;;;;;;;-2.71;57.74;100367.44;4797655;29;20046;-75
2024/03/15 02:00:26;;;;;;;32.45;15.40;;;;;;;-2.40;57.44;100429.34;4785249;29;20055;-75
2024/03/15 02:02:53;;;;;;;31.38;15.50;;;;;;;-2.61;58.39;100415.53;4784307;29;20053;-76
2024/03/15 02:05:20;;;;;;;31.23;16.38;;;;;;;-2.93;58.28;100345.88;4802088;29;20467;-75
2024/03/15 02:07:47;;;;;;;29.63;16.30;;;;;;;-2.26;57.89;100453.91;4813457;29;20046;-75
2024/03/15 02:10:19;;;;;;;31.25;15.57;;;;;;;-2.90;58.21;100350.25;4756366;29;20070;-77
2024/03/15 02:12:45;;;;;;;27.73;15.57;;;;;;;-2.21;58.18;100459.28;4800153;29;20173;-75
2024/03/15 02:15:14;;;;;;;32.03;16.38;;;;;;;-2.20;58.63;100464.44;4797158;29;20042;-74
2024/03/15 02:17:42;;;;;;;29.05;15.70;;;;;;;-2.10;58.72;100457.28;4782817;29;20047;-73
2024/03/15 02:20:15;;;;;;;32.70;16.95;;;;;;;-2.14;58.54;100448.59;4785774;29;20058;-74
2024/03/15 02:22:42;;;;;;;31.77;16.17;;;;;;;-2.38;58.44;100405.69;4796805;29;20050;-73
2024/03/15 02:25:09;;;;;;;28.42;14.82;;;;;;;-2.14;58.25;100454.59;4800869;29;20039;-74
2024/03/15 02:27:36;;;;;;;31.42;16.58;;;;;;;-2.76;58.00;100341.69;4795379;29;20077;-73
2024/03/15 02:30:03;;;;;;;29.33;15.75;;;;;;;-2.28;58.46;100417.25;4784906;29;20074;-73
2024/03/15 02:32:37;;;;;;;32.35;16.88;;;;;;;-2.27;58.07;100421.56;4774618;29;20126;-73
2024/03/15 02:35:06;;;;;;;31.52;16.13;;;;;;;-2.48;58.23;100383.94;4797275;29;20043;-74
2024/03/15 02:37:33;;;;;;;35.25;16.83;;;;;;;-2.68;58.08;100346.31;4755314;29;20085;-71
2024/03/15 02:39:59;;;;;;;31.48;16.77;;;;;;;-2.29;57.98;100418.03;4797143;29;20043;-72
2024/03/15 02:42:25;;;;;;;31.50;16.27;;;;;;;-2.24;58.08;100429.38;4785011;29;20091;-71
2024/03/15 02:44:51;;;;;;;31.55;16.92;;;;;;;-2.10;58.01;100460.72;4811395;29;20475;-71
2024/03/15 02:47:17;;;;;;;28.88;16.70;;;;;;;-2.25;57.99;100440.38;4796152;29;20125;-72
2024/03/15 02:49:44;;;;;;;31.42;16.27;;;;;;;-2.31;57.99;100428.19;4781881;29;20053;-73
2024/03/15 02:52:10;;;;;;;31.85;16.73;;;;;;;-2.21;57.95;100457.59;4795684;29;20059;-72
2024/03/15 02:54:39;;;;;;;30.45;17.05;;;;;;;-2.26;58.25;100443.72;4781699;29;20054;-73
2024/03/15 02:57:08;;;;;;;30.35;15.82;;;;;;;-2.16;58.19;100466.38;4771647;29;20047;-72
2024/03/15 02:59:34;;;;;;;33.13;16.52;;;;;;;-2.64;57.93;100372.03;4810206;29;20109;-74
2024/03/15 03:02:00;;;;;;;30.52;16.80;;;;;;;-2.13;58.07;100455.44;4798815;29;20511;-74
2024/03/15 03:04:26;;;;;;;34.42;16.55;;;;;;;-2.18;58.35;100447.56;4785280;29;20065;-74
2024/03/15 03:06:55;;;;;;;32.65;16.65;;;;;;;-2.14;58.32;100457.13;4800445;29;20181;-75
2024/03/15 03:09:24;;;;;;;32.03;17.55;;;;;;;-2.06;58.35;100459.19;4781250;29;20063;-74
2024/03/15 03:11:50;;;;;;;35.10;17.75;;;;;;;-2.55;58.49;100389.53;4811346;29;20430;-74
2024/03/15 03:14:17;;;;;;;35.20;17.63;;;;;;;-2.23;58.59;100436.22;4782498;29;20169;-76
2024/03/15 03:16:44;;;;;;;31.98;17.05;;;;;;;-2.17;58.09;100448.41;4781695;29;20129;-76
2024/03/15 03:19:14;;;;;;;32.13;17.25;;;;;;;-2.15;58.45;100447.72;4771664;29;20059;-75
2024/03/15 03:21:40;;;;;;;30.35;16.55;;;;;;;-2.09;58.59;100469.22;4797581;29;20061;-75
2024/03/15 03:24:07;;;;;;;36.95;18.48;;;;;;;-2.05;58.23;100463.50;4798569;29;20502;-76
2024/03/15 03:26:34;;;;;;;31.80;17.10;;;;;;;-2.03;57.97;100469.56;4786264;29;20050;-75
2024/03/15 03:29:00;;;;;;;32.80;17.40;;;;;;;-2.15;58.55;100452.81;4796845;29;20051;-73
2024/03/15 03:31:26;;;;;;;37.95;19.40;;;;;;;-2.48;58.65;100396.69;4795713;29;20047;-72
2024/03/15 03:33:52;;;;;;;35.63;17.52;;;;;;;-2.17;58.51;100425.47;4784771;29;20057;-72
2024/03/15 03:36:18;;;;;;;34.80;18.13;;;;;;;-2.31;58.40;100405.22;4797588;29;20398;-74
2024/03/15 03:38:44;;;;;;;36.75;17.77;;;;;;;-2.13;58.33;100438.47;4796984;29;20082;-71
2024/03/15 03:41:10;;;;;;;36.63;17.95;;;;;;;-1.91;58.19;100475.31;4784959;29;20108;-73
2024/03/15 03:43:37;;;;;;;35.00;17.70;;;;;;;-2.17;58.11;100421.25;4784694;29;20046;-74
2024/03/15 03:46:06;;;;;;;39.13;18.35;;;;;;;-1.90;58.36;100453.22;4781086;29;20039;-73
2024/03/15 03:48:33;;;;;;;36.00;18.23;;;;;;;-2.22;58.30;100403.97;4785446;29;20130;-73
2024/03/15 03:51:04;;;;;;;36.72;18.15;;;;;;;-2.17;58.61;100403.41;4799993;29;20047;-78
2024/03/15 03:53:33;;;;;;;35.45;18.27;;;;;;;-1.93;58.53;100436.09;4787109;29;20078;-78
2024/03/15 03:56:00;;;;;;;36.10;18.15;;;;;;;-1.77;58.34;100470.03;4780605;29;20402;-76
2024/03/15 03:58:28;;;;;;;34.28;18.23;;;;;;;-1.85;58.75;100450.09;4798298;29;20062;-76
2024/03/15 04:00:54;;;;;;;35.78;18.83;;;;;;;-2.07;58.31;100409.88;4810714;29;20062;-75
2024/03/15 04:03:23;;;;;;;33.30;18.23;;;;;;;-2.14;58.31;100385.72;4801343;29;20054;-75
2024/03/15 04:05:49;;;;;;;34.55;18.52;;;;;;;-1.60;58.37;100473.47;4817116;29;20043;-75
2024/03/15 04:08:17;;;;;;;34.03;17.35;;;;;;;-1.75;58.34;100446.34;4802012;29;20046;-74
2024/03/15 04:10:43;;;;;;;35.97;18.33;;;;;;;-2.02;58.10;100393.13;4802130;29;20046;-76
2024/03/15 04:13:09;;;;;;;36.58;17.60;;;;;;;-1.95;58.51;100404.50;4820078;29;20058;-76
2024/03/15 04:15:36;;;;;;;32.00;18.27;;;;;;;-1.89;58.25;100392.09;4804333;29;20133;-78
2024/03/15 04:18:02;;;;;;;34.85;17.83;;;;;;;-1.49;58.30;100456.16;4804741;29;20103;-75
2024/03/15 04:20:29;;;;;;;35.17;18.13;;;;;;;-2.16;58.49;100318.44;4776742;29;20140;-74
2024/03/15 04:22:56;;;;;;;36.83;17.63;;;;;;;-1.29;58.04;100463.13;4776631;29;20057;-77
2024/03/15 04:25:23;;;;;;;39.88;19.33;;;;;;;-1.23;58.51;100435.34;4806605;29;20072;-76
2024/03/15 04:27:51;;;;;;;34.70;18.13;;;;;;;-1.48;58.04;100373.66;4806238;29;20046;-77
2024/03/15 04:30:21;;;;;;;35.05;17.58;;;;;;;-0.90;57.85;100452.22;4789204;29;20510;-80
2024/03/15 04:32:51;;;;;;;32.40;17.42;;;;;;;-0.54;57.76;100489.66;4806214;29;20042;-76
2024/03/15 04:35:17;;;;;;;32.50;17.38;;;;;;;-0.38;58.06;100470.81;4817515;29;20046;-77
2024/03/15 04:37:45;;;;;;;32.15;18.05;;;;;;;-0.53;57.42;100413.03;4791382;29;20066;-78
2024/03/15 04:40:11;;;;;;;31.20;17.25;;;;;;;-0.24;56.99;100427.94;4818848;29;20110;-76
2024/03/15 04:42:37;;;;;;;29.73;17.33;;;;;;;0.35;57.40;100467.22;4803472;29;20505;-76
2024/03/15 04:45:08;;;;;;;31.45;17.45;;;;;;;0.50;57.47;100463.56;4759827;29;20085;-74
2024/03/15 04:47:42;;;;;;;30.27;17.03;;;;;;;0.67;56.39;100456.59;4795137;29;20046;-76
2024/03/15 04:50:11;;;;;;;31.23;17.58;;;;;;;1.02;56.78;100486.25;4804969;29;20456;-74
2024/03/15 04:52:39;;;;;;;27.45;16.10;;;;;;;1.56;56.21;100478.94;4804318;29;20054;-72
2024/03/15 04:55:05;;;;;;;28.75;15.30;;;;;;;2.33;55.79;100427.81;4805050;29;20034;-75
2024/03/15 04:57:32;;;;;;;25.70;15.52;;;;;;;3.64;55.27;100468.00;4803240;29;20042;-73
2024/03/15 04:59:59;;;;;;;25.27;15.02;;;;;;;4.62;53.96;100467.31;4806866;29;20142;-76
2024/03/15 05:02:25;;;;;;;26.95;16.02;;;;;;;5.33;53.27;100439.78;4803089;29;20050;-72
2024/03/15 05:04:51;;;;;;;24.05;14.57;;;;;;;5.71;51.23;100366.56;4806290;29;20046;-74
2024/03/15 05:07:17;;;;;;;24.17;15.40;;;;;;;6.86;50.63;100459.13;4789030;29;20082;-79
2024/03/15 05:09:44;;;;;;;25.17;16.70;;;;;;;7.39;49.59;100428.06;4802358;29;20042;-76
2024/03/15 05:12:12;;;;;;;25.45;15.07;;;;;;;8.03;47.80;100412.44;4804217;29;20123;-75
2024/03/15 05:14:39;;;;;;;23.45;16.08;;;;;;;8.81;46.98;100414.97;4818695;29;20598;-76
2024/03/15 05:17:05;;;;;;;25.35;16.38;;;;;;;9.40;45.84;100404.09;4801377;29;20074;-76
2024/03/15 05:19:31;;;;;;;22.70;16.17;;;;;;;10.15;44.26;100413.94;4798148;29;20042;-73
2024/03/15 05:21:58;;;;;;;24.55;15.57;;;;;;;10.51;42.65;100373.25;4785734;29;20050;-74
2024/03/15 05:24:28;;;;;;;22.77;15.45;;;;;;;11.42;41.28;100428.75;4805815;29;20042;-74
2024/03/15 05:26:54;;;;;;;25.25;15.73;;;;;;;11.61;40.80;100364.38;4804103;29;20084;-76
2024/03/15 05:29:20;;;;;;;24.10;15.55;;;;;;;12.45;39.68;100437.03;4801330;29;20595;-74
2024/03/15 05:31:46;;;;;;;22.20;15.45;;;;;;;12.76;38.61;100400.25;4788679;29;20050;-74
2024/03/15 05:34:14;;;;;;;24.88;16.67;;;;;;;13.44;37.81;100438.81;4801560;29;20057;-76
2024/03/15 05:36:41;;;;;;;22.27;15.55;;;;;;;14.06;36.70;100427.63;4788140;29;20459;-72
2024/03/15 05:39:10;;;;;;;27.67;16.35;;;;;;;14.68;35.92;100433.75;4805078;29;20050;-72
2024/03/15 05:41:41;;;;;;;20.20;14.82;;;;;;;14.73;34.71;100388.28;4787963;29;20042;-73
2024/03/15 05:44:09;;;;;;;21.48;15.80;;;;;;;15.28;33.80;100403.91;4817164;29;20047;-75
2024/03/15 05:46:36;;;;;;;22.75;16.02;;;;;;;15.72;32.99;100419.66;4789056;29;20050;-74
2024/03/15 05:49:02;;;;;;;24.77;16.65;;;;;;;16.41;32.63;100398.94;4789810;29;20034;-75
2024/03/15 05:51:32;;;;;;;23.10;17.30;;;;;;;17.50;31.81;100438.28;4817414;29;20046;-71
2024/03/15 05:53:58;;;;;;;21.98;16.25;;;;;;;17.80;31.23;100425.19;4803324;29;20097;-73
2024/03/15 05:56:24;;;;;;;22.77;16.08;;;;;;;18.00;30.06;100421.97;4813777;29;20435;-73
2024/03/15 05:58:51;;;;;;;21.08;15.85;;;;;;;18.25;29.83;100410.69;4787945;29;20051;-73
2024/03/15 06:01:17;;;;;;;23.17;15.60;;;;;;;18.34;28.92;100363.00;4817563;29;20515;-71
2024/03/15 06:03:43;;;;;;;19.67;16.98;;;;;;;18.78;28.46;100423.06;4799408;29;20038;-72
2024/03/15 06:06:09;;;;;;;19.98;16.30;;;;;;;19.08;27.60;100440.59;4788954;29;20052;-73
2024/03/15 06:08:36;;;;;;;21.20;15.73;;;;;;;19.23;27.54;100434.78;4787593;29;20106;-71
2024/03/15 06:11:03;;;;;;;25.38;20.17;;;;;;;19.26;27.35;100378.41;4803549;29;20095;-74
2024/03/15 06:13:30;;;;;;;19.48;16.15;;;;;;;19.81;26.65;100388.69;4773015;29;20050;-73
2024/03/15 06:15:56;;;;;;;20.73;16.42;;;;;;;20.28;26.57;100430.09;4802212;29;20107;-75
2024/03/15 06:18:22;;;;;;;17.95;15.60;;;;;;;20.91;25.64;100420.53;4799743;29;20533;-71
2024/03/15 06:20:48;;;;;;;19.95;17.00;;;;;;;21.14;25.78;100416.03;4799713;29;20045;-70
2024/03/15 06:23:14;;;;;;;19.30;17.17;;;;;;;20.98;24.95;100406.13;4802554;29;20050;-69
2024/03/15 06:25:43;;;;;;;22.92;17.17;;;;;;;21.83;24.85;100438.63;4799191;29;20045;-73
2024/03/15 06:28:11;;;;;;;21.73;16.83;;;;;;;21.69;24.06;100385.44;4802046;29;20053;-70
2024/03/15 06:30:46;;;;;;;18.83;16.27;;;;;;;21.32;23.97;100431.09;4799893;29;20049;-69
2024/03/15 06:33:15;;;;;;;20.92;16.55;;;;;;;19.89;24.35;100432.47;4798888;29;20050;-71
2024/03/15 06:35:43;;;;;;;21.48;16.80;;;;;;;17.75;25.20;100430.59;4813883;29;20030;-71
2024/03/15 06:38:28;;;;;;;19.65;16.88;;;;;;;15.67;26.31;100424.13;4798708;29;20054;-73
2024/03/15 06:41:13;;;;;;;19.77;16.27;;;;;;;14.27;27.46;100443.94;4784908;29;20043;-71
2024/03/15 06:43:47;;;;;;;22.60;16.67;;;;;;;13.34;28.64;100464.16;4783045;29;20182;-71
2024/03/15 06:46:22;;;;;;;22.33;16.00;;;;;;;12.72;29.69;100440.31;4796187;29;20133;-73
2024/03/15 06:48:57;;;;;;;22.90;15.93;;;;;;;12.51;30.19;100473.50;4781667;29;20050;-70
2024/03/15 06:54:09;;;;;;;18.80;15.10;;;;;;;12.29;30.92;100464.97;4784383;29;20050;-72
2024/03/15 06:56:37;;;;;;;20.67;15.93;;;;;;;12.33;31.37;100475.38;4781185;29;20047;-73
2024/03/15 06:59:04;;;;;;;19.95;15.27;;;;;;;12.33;31.63;100417.94;4799840;29;20051;-71
2024/03/15 07:01:30;;;;;;;20.65;15.02;;;;;;;13.26;31.67;100448.56;4766137;29;20407;-73
2024/03/15 07:03:59;;;;;;;18.83;14.18;;;;;;;14.44;31.12;100401.81;4784924;29;20048;-73
2024/03/15 07:06:27;;;;;;;21.42;15.27;;;;;;;15.74;30.18;100417.03;4801586;29;20057;-81
2024/03/15 07:08:55;;;;;;;17.58;13.98;;;;;;;17.00;29.68;100402.78;4786772;29;20122;-75
2024/03/15 07:11:27;;;;;;;20.05;14.10;;;;;;;19.41;28.82;100438.56;4785746;29;20111;-75
2024/03/15 07:13:56;;;;;;;19.33;15.18;;;;;;;19.55;26.50;100387.03;4813901;29;20039;-73
2024/03/15 07:16:24;;;;;;;20.65;15.40;;;;;;;19.54;26.08;100441.59;4796547;29;20074;-73
2024/03/15 07:18:51;;;;;;;19.00;14.48;;;;;;;19.74;26.16;100415.38;4785303;29;20057;-70
2024/03/15 07:21:17;;;;;;;19.30;15.13;;;;;;;20.82;25.55;100410.34;4796951;29;20502;-71
2024/03/15 07:23:43;;;;;;;18.50;14.93;;;;;;;21.61;25.22;100455.47;4784771;29;20050;-70
2024/03/15 07:26:10;;;;;;;20.50;15.07;;;;;;;21.53;24.65;100428.44;4785490;29;20057;-74
2024/03/15 07:28:39;;;;;;;19.60;15.70;;;;;;;21.26;24.78;100391.69;4784837;29;20046;-70
2024/03/15 07:31:05;;;;;;;19.85;15.05;;;;;;;20.99;24.66;100388.44;4783846;29;20069;-71
2024/03/15 07:33:32;;;;;;;17.15;15.18;;;;;;;21.42;24.84;100423.63;4784514;29;20476;-71
2024/03/15 07:36:01;;;;;;;18.05;13.45;;;;;;;21.87;24.02;100363.38;4782436;29;20048;-76
2024/03/15 07:38:27;;;;;;;16.02;14.30;;;;;;;22.25;24.25;100424.28;4800385;29;20062;-73
2024/03/15 07:40:55;;;;;;;17.52;14.20;;;;;;;22.32;23.36;100419.53;4816016;29;20056;-72
2024/03/15 07:43:21;;;;;;;18.92;14.57;;;;;;;20.66;23.37;100373.06;4773532;29;20093;-74
2024/03/15 07:45:50;;;;;;;17.85;14.60;;;;;;;19.73;24.17;100396.06;4775347;29;20063;-70
2024/03/15 07:48:16;;;;;;;20.17;14.68;;;;;;;20.49;24.68;100384.34;4787818;29;20081;-76
2024/03/15 07:50:45;;;;;;;18.50;15.57;;;;;;;21.69;24.80;100433.09;4816198;29;20042;-75
2024/03/15 07:53:16;;;;;;;16.88;14.43;;;;;;;22.60;23.85;100388.22;4801718;29;20129;-77
2024/03/15 07:55:42;;;;;;;19.05;14.98;;;;;;;22.63;23.06;100410.13;4817213;29;20039;-77
2024/03/15 07:58:08;;;;;;;20.55;14.95;;;;;;;23.88;23.16;100421.38;4798573;29;20058;-74
2024/03/15 08:00:36;;;;;;;18.67;14.48;;;;;;;22.99;22.47;100390.63;4790361;29;20054;-75
2024/03/15 08:03:02;;;;;;;16.40;14.68;;;;;;;20.89;22.59;100398.56;4788576;29;20057;-72
2024/03/15 08:05:33;;;;;;;23.48;15.23;;;;;;;19.93;23.89;100383.91;4802591;29;20074;-77
2024/03/15 08:07:59;;;;;;;19.45;14.65;;;;;;;19.79;24.32;100411.66;4788110;29;20507;-72
2024/03/15 08:10:26;;;;;;;16.20;14.32;;;;;;;20.99;24.31;100391.97;4789924;29;20517;-74
2024/03/15 08:12:54;;;;;;;17.17;14.60;;;;;;;20.65;24.13;100409.22;4787273;29;20049;-72
2024/03/15 08:15:21;;;;;;;19.38;14.77;;;;;;;19.96;24.45;100382.00;4804137;29;20050;-73
2024/03/15 08:17:50;;;;;;;21.30;14.00;;;;;;;19.13;24.42;100387.69;4785785;29;20042;-71
2024/03/15 08:20:19;;;;;;;18.13;14.60;;;;;;;19.16;24.68;100391.06;4802687;29;20522;-70
2024/03/15 08:22:45;;;;;;;17.77;14.60;;;;;;;19.05;25.16;100428.34;4773493;29;20085;-70
2024/03/15 08:25:11;;;;;;;17.90;14.90;;;;;;;18.65;25.71;100445.47;4804376;29;20087;-73
2024/03/15 08:27:41;;;;;;;18.48;14.93;;;;;;;17.99;25.60;100433.41;4815022;29;20047;-72
2024/03/15 08:30:08;;;;;;;17.42;13.55;;;;;;;17.26;25.98;100432.78;4769940;29;20042;-71
2024/03/15 08:32:36;;;;;;;17.75;13.90;;;;;;;16.25;26.72;100366.06;4784782;29;20167;-70
2024/03/15 08:35:03;;;;;;;19.58;14.30;;;;;;;16.15;27.27;100407.44;4799853;29;20066;-72
2024/03/15 08:37:31;;;;;;;19.23;14.35;;;;;;;16.26;27.86;100399.31;4803081;29;20046;-72
2024/03/15 08:39:59;;;;;;;19.95;14.15;;;;;;;16.31;27.64;100414.94;4787944;29;20046;-72
2024/03/15 08:42:25;;;;;;;17.85;13.18;;;;;;;16.40;28.41;100404.25;4783061;29;20057;-71
2024/03/15 08:44:54;;;;;;;21.58;13.63;;;;;;;17.15;28.13;100434.84;4802818;29;20057;-71
2024/03/15 08:47:22;;;;;;;19.67;14.10;;;;;;;16.60;27.22;100382.75;4782411;29;20414;-72
2024/03/15 08:49:51;;;;;;;17.45;13.05;;;;;;;16.49;27.66;100432.91;4770822;29;20191;-72
2024/03/15 08:52:18;;;;;;;19.67;14.00;;;;;;;15.58;28.17;100425.19;4801807;29;20134;-71
2024/03/15 08:54:44;;;;;;;19.48;14.05;;;;;;;15.06;28.89;100416.53;4798936;29;20062;-71
2024/03/15 08:57:12;;;;;;;15.63;12.05;;;;;;;14.71;29.19;100429.34;4784216;29;20403;-71
2024/03/15 08:59:40;;;;;;;18.65;14.02;;;;;;;14.69;29.95;100431.13;4799404;29;20070;-72
2024/03/15 09:02:07;;;;;;;17.98;12.90;;;;;;;15.46;29.63;100446.41;4786092;29;20084;-71
2024/03/15 09:04:35;;;;;;;19.50;13.15;;;;;;;16.66;29.18;100419.38;4782943;29;20509;-71
2024/03/15 09:07:01;;;;;;;16.60;13.23;;;;;;;17.73;28.10;100432.41;4793915;29;20073;-70
2024/03/15 09:09:34;;;;;;;18.75;13.35;;;;;;;18.66;27.89;100434.88;4787766;29;20046;-72
2024/03/15 09:12:00;;;;;;;19.73;13.50;;;;;;;18.69;27.50;100398.78;4798648;29;20114;-71
2024/03/15 09:14:27;;;;;;;17.90;12.95;;;;;;;19.30;27.10;100413.47;4772795;29;20042;-70
2024/03/15 09:16:54;;;;;;;16.38;12.77;;;;;;;19.54;26.74;100435.47;4802106;29;20039;-71
2024/03/15 09:19:21;;;;;;;17.13;13.13;;;;;;;19.49;26.64;100390.78;4799498;29;20073;-71
2024/03/15 09:21:48;;;;;;;18.38;14.20;;;;;;;20.38;26.06;100412.09;4801520;29;20528;-74
2024/03/15 09:24:15;;;;;;;14.38;12.68;;;;;;;20.65;25.87;100355.50;4787302;29;20050;-72
2024/03/15 09:26:42;;;;;;;15.43;13.05;;;;;;;21.17;25.24;100341.81;4797303;29;20080;-72
2024/03/15 09:29:08;;;;;;;16.98;12.93;;;;;;;21.54;24.23;100432.81;4814278;29;20077;-72
2024/03/15 09:31:40;;;;;;;17.27;14.23;;;;;;;20.85;25.05;100420.81;4815540;29;20650;-71
2024/03/15 09:34:06;;;;;;;17.98;13.35;;;;;;;20.02;24.75;100409.94;4812623;29;20091;-70
2024/03/15 09:36:33;;;;;;;18.08;13.82;;;;;;;18.75;25.70;100411.75;4786853;29;20098;-71
2024/03/15 09:39:00;;;;;;;17.42;13.70;;;;;;;17.48;26.45;100416.41;4786389;29;20046;-73
2024/03/15 09:41:28;;;;;;;19.27;13.75;;;;;;;16.35;27.00;100443.72;4787171;29;20157;-73
2024/03/15 09:43:54;;;;;;;17.80;13.60;;;;;;;15.55;28.27;100427.88;4771244;29;20478;-71
2024/03/15 09:46:22;;;;;;;17.73;13.35;;;;;;;15.16;28.64;100440.81;4797307;29;20267;-73
2024/03/15 09:48:52;;;;;;;18.73;13.80;;;;;;;14.21;29.41;100389.06;4798376;29;20042;-77
2024/03/15 09:51:18;;;;;;;18.13;13.27;;;;;;;13.96;30.17;100433.88;4769025;29;20041;-73
2024/03/15 09:53:47;;;;;;;19.33;12.65;;;;;;;13.26;30.54;100401.53;4767658;29;20050;-77
2024/03/15 09:56:18;;;;;;;18.40;13.40;;;;;;;12.72;31.26;100422.03;4797861;29;20046;-77
2024/03/15 09:58:52;;;;;;;21.63;13.32;;;;;;;12.37;31.86;100420.53;4771393;29;20153;-72
2024/03/15 10:01:18;;;;;;;20.83;12.95;;;;;;;12.29;32.48;100425.81;4784288;29;20059;-71
2024/03/15 10:03:48;;;;;;;19.70;12.40;;;;;;;11.48;32.86;100360.09;4798252;29;20103;-74
2024/03/15 10:06:16;;;;;;;19.20;12.07;;;;;;;11.34;33.55;100397.50;4798024;29;20058;-71
2024/03/15 10:08:43;;;;;;;18.50;12.40;;;;;;;11.15;33.99;100381.03;4813497;29;20050;-73
2024/03/15 10:11:09;;;;;;;18.83;12.00;;;;;;;11.24;34.48;100409.69;4813161;29;20051;-73
2024/03/15 10:13:35;;;;;;;18.83;12.55;;;;;;;11.20;34.73;100409.66;4801495;29;20081;-75
2024/03/15 10:16:01;;;;;;;23.17;12.43;;;;;;;10.79;35.22;100356.78;4797698;29;20099;-75
2024/03/15 10:18:27;;;;;;;17.35;11.98;;;;;;;11.18;35.25;100416.63;4796619;29;20053;-73
2024/03/15 10:20:54;;;;;;;21.77;13.25;;;;;;;10.96;35.27;100404.50;4771933;29;20042;-73
2024/03/15 10:23:20;;;;;;;17.90;12.50;;;;;;;10.91;35.76;100423.63;4795314;29;20046;-74
2024/03/15 10:25:49;;;;;;;20.92;13.05;;;;;;;10.58;35.98;100397.56;4795735;29;20066;-76
2024/03/15 10:28:19;;;;;;;22.80;12.75;;;;;;;10.54;35.95;100446.13;4797501;29;20046;-73
2024/03/15 10:30:47;;;;;;;22.27;12.55;;;;;;;10.35;36.82;100447.81;4813374;29;20042;-75
2024/03/15 10:33:14;;;;;;;19.02;12.70;;;;;;;9.65;37.35;100343.59;4800049;29;20050;-74
2024/03/15 10:35:41;;;;;;;20.17;12.20;;;;;;;10.01;36.60;100402.63;4796637;29;20057;-71
2024/03/15 10:38:15;;;;;;;18.17;11.88;;;;;;;10.00;37.10;100439.91;4811802;29;20498;-73
2024/03/15 10:40:42;;;;;;;21.90;11.70;;;;;;;9.84;37.45;100447.63;4800362;29;20095;-73
2024/03/15 10:43:11;;;;;;;21.10;11.85;;;;;;;9.57;38.33;100438.84;4784162;29;20053;-73
2024/03/15 10:45:43;;;;;;;19.08;11.27;;;;;;;9.34;38.67;100418.81;4780973;29;20069;-76
2024/03/15 10:48:10;;;;;;;20.20;11.38;;;;;;;9.40;38.63;100437.84;4795747;29;20077;-76
2024/03/15 10:50:38;;;;;;;19.50;12.20;;;;;;;8.86;39.22;100366.53;4783269;29;20050;-74
2024/03/15 10:53:14;;;;;;;17.58;11.35;;;;;;;9.08;39.63;100423.81;4814397;29;20050;-71
2024/03/15 10:55:47;;;;;;;17.63;11.07;;;;;;;9.10;40.29;100390.06;4786827;29;20046;-82
2024/03/15 10:58:13;;;;;;;18.65;11.40;;;;;;;9.56;39.94;100420.63;4774083;29;20065;-72
2024/03/15 11:00:40;;;;;;;18.27;11.57;;;;;;;9.64;39.59;100432.81;4792072;29;20055;-70
2024/03/15 11:03:18;;;;;;;19.80;10.55;;;;;;;9.62;40.17;100421.53;4798017;29;20452;-72
2024/03/15 11:05:46;;;;;;;22.75;10.82;;;;;;;9.60;39.58;100417.19;4790589;29;20824;-74
2024/03/15 11:08:17;;;;;;;20.83;11.77;;;;;;;9.61;40.09;100445.78;4805175;29;20097;-70
2024/03/15 11:10:54;;;;;;;19.80;11.75;;;;;;;9.34;40.37;100389.34;4800364;29;20142;-69
2024/03/15 11:13:25;;;;;;;22.02;12.75;;;;;;;9.33;40.30;100404.06;4800103;29;20058;-72